DAL1710 KATL-KMIA
Flight info
| Callsign | DAL1710 |
|---|---|
| Flight time | 1h 23m |
| Altitude | 38000 |
| Route | BANNG3 LUCKK HONID FROGZ5 |
| Aircraft | B752/M-SDE2E3FGHIJ3J4J7RWXY/LB1 |
Departure
| Time | 2026-05-03 21:57 |
|---|---|
| Airport | Hartsfield Jackson Atlanta International Airport (KATL) |
Arrival
| Time | 2026-05-03 23:20 |
|---|---|
| Airport | Miami International Airport (KMIA) |
| Time | Latitude | Longitude | Altitude | Speed | Heading |
|---|---|---|---|---|---|
| 2026-05-03 21:35 | 33.63833 | -84.43535 | 1025 ft | 0 kts | 271° |
| 2026-05-03 21:48 | 33.63833 | -84.43531 | 1024 ft | 2 kts | 271° |
| 2026-05-03 21:48 | 33.63833 | -84.43513 | 1024 ft | 2 kts | 271° |
| 2026-05-03 21:48 | 33.63832 | -84.43495 | 1024 ft | 1 kts | 271° |
| 2026-05-03 21:48 | 33.63832 | -84.43483 | 1024 ft | 2 kts | 258° |
| 2026-05-03 21:49 | 33.63839 | -84.43469 | 1024 ft | 2 kts | 223° |
| 2026-05-03 21:49 | 33.63852 | -84.43460 | 1024 ft | 2 kts | 189° |
| 2026-05-03 21:49 | 33.63858 | -84.43459 | 1024 ft | 1 kts | 176° |
| 2026-05-03 21:49 | 33.63862 | -84.43459 | 1024 ft | 0 kts | 179° |
| 2026-05-03 21:51 | 33.63813 | -84.43459 | 1024 ft | 14 kts | 180° |
| 2026-05-03 21:51 | 33.63748 | -84.43459 | 1024 ft | 0 kts | 179° |
| 2026-05-03 21:52 | 33.63717 | -84.43457 | 1025 ft | 7 kts | 172° |
| 2026-05-03 21:52 | 33.63666 | -84.43405 | 1024 ft | 12 kts | 106° |
| 2026-05-03 21:52 | 33.63664 | -84.43278 | 1025 ft | 18 kts | 87° |
| 2026-05-03 21:52 | 33.63663 | -84.43107 | 1025 ft | 22 kts | 88° |
| 2026-05-03 21:53 | 33.63664 | -84.42917 | 1024 ft | 22 kts | 91° |
| 2026-05-03 21:53 | 33.63662 | -84.42738 | 1025 ft | 20 kts | 97° |
| 2026-05-03 21:53 | 33.63658 | -84.42572 | 1025 ft | 19 kts | 90° |
| 2026-05-03 21:53 | 33.63659 | -84.42419 | 1024 ft | 17 kts | 90° |
| 2026-05-03 21:54 | 33.63655 | -84.42274 | 1025 ft | 16 kts | 90° |
| 2026-05-03 21:54 | 33.63628 | -84.42144 | 1023 ft | 16 kts | 120° |
| 2026-05-03 21:54 | 33.63582 | -84.42014 | 1019 ft | 17 kts | 94° |
| 2026-05-03 21:54 | 33.63581 | -84.41870 | 1018 ft | 17 kts | 90° |
| 2026-05-03 21:55 | 33.63580 | -84.41693 | 1017 ft | 26 kts | 90° |
| 2026-05-03 21:55 | 33.63583 | -84.41467 | 1014 ft | 27 kts | 90° |
| 2026-05-03 21:55 | 33.63582 | -84.41241 | 1010 ft | 26 kts | 91° |
| 2026-05-03 21:55 | 33.63580 | -84.41040 | 1007 ft | 15 kts | 89° |
| 2026-05-03 21:56 | 33.63575 | -84.40939 | 1007 ft | 6 kts | 118° |
| 2026-05-03 21:56 | 33.63505 | -84.40916 | 1006 ft | 19 kts | 201° |
| 2026-05-03 21:56 | 33.63465 | -84.41132 | 1008 ft | 38 kts | 271° |
| 2026-05-03 21:56 | 33.63466 | -84.41713 | 1012 ft | 108 kts | 270° |
| 2026-05-03 21:57 | 33.63467 | -84.42901 | 1137 ft | 165 kts | 270° |
| 2026-05-03 21:57 | 33.63473 | -84.44407 | 1660 ft | 202 kts | 269° |
| 2026-05-03 21:57 | 33.63469 | -84.46228 | 2314 ft | 232 kts | 270° |
| 2026-05-03 21:57 | 33.63469 | -84.48180 | 3024 ft | 245 kts | 271° |
| 2026-05-03 21:58 | 33.63469 | -84.50298 | 3671 ft | 261 kts | 271° |
| 2026-05-03 21:58 | 33.63468 | -84.52486 | 4629 ft | 264 kts | 271° |
| 2026-05-03 21:58 | 33.63467 | -84.54683 | 5492 ft | 269 kts | 271° |
| 2026-05-03 21:58 | 33.63402 | -84.56895 | 6403 ft | 272 kts | 261° |
| 2026-05-03 21:59 | 33.62658 | -84.58978 | 7221 ft | 280 kts | 233° |
| 2026-05-03 21:59 | 33.61127 | -84.60448 | 8102 ft | 287 kts | 206° |
| 2026-05-03 21:59 | 33.59161 | -84.60943 | 8877 ft | 297 kts | 179° |
| 2026-05-03 21:59 | 33.57163 | -84.60344 | 9610 ft | 305 kts | 152° |
| 2026-05-03 22:00 | 33.55431 | -84.58852 | 10412 ft | 308 kts | 141° |
| 2026-05-03 22:00 | 33.53745 | -84.57186 | 10829 ft | 327 kts | 141° |
| 2026-05-03 22:00 | 33.51908 | -84.55415 | 11211 ft | 345 kts | 144° |
| 2026-05-03 22:00 | 33.49779 | -84.53908 | 11496 ft | 364 kts | 158° |
| 2026-05-03 22:01 | 33.47333 | -84.52866 | 11844 ft | 379 kts | 166° |
| 2026-05-03 22:01 | 33.44799 | -84.52073 | 12568 ft | 382 kts | 168° |
| 2026-05-03 22:01 | 33.42183 | -84.51382 | 13304 ft | 385 kts | 171° |
| 2026-05-03 22:01 | 33.39549 | -84.50761 | 14017 ft | 389 kts | 172° |
| 2026-05-03 22:02 | 33.36869 | -84.50178 | 14727 ft | 393 kts | 173° |
| 2026-05-03 22:02 | 33.34167 | -84.49616 | 15468 ft | 395 kts | 173° |
| 2026-05-03 22:02 | 33.31455 | -84.49067 | 16188 ft | 398 kts | 173° |
| 2026-05-03 22:02 | 33.28694 | -84.48515 | 16857 ft | 401 kts | 174° |
| 2026-05-03 22:03 | 33.25919 | -84.47967 | 17543 ft | 404 kts | 174° |
| 2026-05-03 22:03 | 33.23130 | -84.47417 | 18187 ft | 408 kts | 174° |
| 2026-05-03 22:03 | 33.20348 | -84.46872 | 18822 ft | 411 kts | 174° |
| 2026-05-03 22:03 | 33.17478 | -84.46310 | 19445 ft | 415 kts | 174° |
| 2026-05-03 22:04 | 33.14640 | -84.45756 | 20055 ft | 418 kts | 174° |
| 2026-05-03 22:04 | 33.11764 | -84.45194 | 20655 ft | 421 kts | 174° |
| 2026-05-03 22:04 | 33.08831 | -84.44621 | 21222 ft | 425 kts | 174° |
| 2026-05-03 22:04 | 33.05917 | -84.44052 | 21786 ft | 428 kts | 174° |
| 2026-05-03 22:05 | 33.02946 | -84.43474 | 22337 ft | 431 kts | 174° |
| 2026-05-03 22:05 | 32.99982 | -84.42896 | 22847 ft | 435 kts | 174° |
| 2026-05-03 22:05 | 32.96959 | -84.42328 | 23404 ft | 436 kts | 177° |
| 2026-05-03 22:05 | 32.93959 | -84.42130 | 23912 ft | 435 kts | 184° |
| 2026-05-03 22:06 | 32.90892 | -84.42059 | 24432 ft | 438 kts | 183° |
| 2026-05-03 22:06 | 32.87848 | -84.41987 | 24970 ft | 439 kts | 184° |
| 2026-05-03 22:06 | 32.84781 | -84.41919 | 25412 ft | 442 kts | 184° |
| 2026-05-03 22:06 | 32.81718 | -84.41856 | 25913 ft | 443 kts | 184° |
| 2026-05-03 22:07 | 32.78595 | -84.41790 | 26354 ft | 446 kts | 184° |
| 2026-05-03 22:07 | 32.75467 | -84.41726 | 26812 ft | 447 kts | 184° |
| 2026-05-03 22:07 | 32.72369 | -84.41663 | 27214 ft | 450 kts | 184° |
| 2026-05-03 22:07 | 32.69232 | -84.41599 | 27712 ft | 450 kts | 185° |
| 2026-05-03 22:08 | 32.66066 | -84.41535 | 28041 ft | 454 kts | 185° |
| 2026-05-03 22:08 | 32.62907 | -84.41472 | 28531 ft | 454 kts | 185° |
| 2026-05-03 22:08 | 32.59731 | -84.41409 | 28896 ft | 456 kts | 185° |
| 2026-05-03 22:08 | 32.56559 | -84.41345 | 29287 ft | 457 kts | 185° |
| 2026-05-03 22:09 | 32.53396 | -84.41282 | 29647 ft | 459 kts | 185° |
| 2026-05-03 22:09 | 32.50180 | -84.41218 | 29991 ft | 461 kts | 185° |
| 2026-05-03 22:09 | 32.46977 | -84.41154 | 30358 ft | 462 kts | 186° |
| 2026-05-03 22:10 | 32.40547 | -84.41023 | 31325 ft | 457 kts | 186° |
| 2026-05-03 22:10 | 32.37340 | -84.40958 | 31708 ft | 456 kts | 186° |
| 2026-05-03 22:10 | 32.34188 | -84.40895 | 32219 ft | 453 kts | 186° |
| 2026-05-03 22:10 | 32.31061 | -84.40833 | 32681 ft | 449 kts | 187° |
| 2026-05-03 22:11 | 32.27899 | -84.40769 | 33008 ft | 449 kts | 187° |
| 2026-05-03 22:11 | 32.24797 | -84.40707 | 33448 ft | 446 kts | 187° |
| 2026-05-03 22:11 | 32.21687 | -84.40644 | 33938 ft | 441 kts | 187° |
| 2026-05-03 22:11 | 32.18652 | -84.40584 | 34240 ft | 440 kts | 187° |
| 2026-05-03 22:12 | 32.15569 | -84.40525 | 34372 ft | 442 kts | 187° |
| 2026-05-03 22:12 | 32.12473 | -84.40463 | 34690 ft | 440 kts | 188° |
| 2026-05-03 22:12 | 32.09429 | -84.40403 | 34930 ft | 440 kts | 188° |
| 2026-05-03 22:12 | 32.06362 | -84.40342 | 35212 ft | 438 kts | 188° |
| 2026-05-03 22:13 | 32.03330 | -84.40281 | 35463 ft | 436 kts | 188° |
| 2026-05-03 22:13 | 32.00291 | -84.40220 | 35746 ft | 434 kts | 188° |
| 2026-05-03 22:13 | 31.97292 | -84.40161 | 36009 ft | 433 kts | 188° |
| 2026-05-03 22:13 | 31.94234 | -84.40102 | 36142 ft | 435 kts | 188° |
| 2026-05-03 22:14 | 31.91234 | -84.40041 | 36472 ft | 432 kts | 188° |
| 2026-05-03 22:14 | 31.88195 | -84.39982 | 36665 ft | 433 kts | 188° |
| 2026-05-03 22:14 | 31.85193 | -84.39922 | 36943 ft | 431 kts | 188° |
| 2026-05-03 22:14 | 31.82157 | -84.39864 | 37046 ft | 433 kts | 188° |
| 2026-05-03 22:15 | 31.79142 | -84.39803 | 37369 ft | 430 kts | 188° |
| 2026-05-03 22:15 | 31.76116 | -84.39744 | 37489 ft | 432 kts | 188° |
| 2026-05-03 22:15 | 31.73112 | -84.39684 | 37640 ft | 432 kts | 188° |
| 2026-05-03 22:15 | 31.70120 | -84.39625 | 37832 ft | 431 kts | 189° |
| 2026-05-03 22:16 | 31.67094 | -84.39565 | 37987 ft | 431 kts | 188° |
| 2026-05-03 22:16 | 31.64047 | -84.39271 | 38095 ft | 443 kts | 180° |
| 2026-05-03 22:16 | 31.61017 | -84.38542 | 38306 ft | 445 kts | 178° |
| 2026-05-03 22:16 | 31.57987 | -84.37784 | 38502 ft | 443 kts | 179° |
| 2026-05-03 22:17 | 31.54959 | -84.37032 | 38485 ft | 446 kts | 179° |
| 2026-05-03 22:17 | 31.51906 | -84.36265 | 38636 ft | 446 kts | 178° |
| 2026-05-03 22:17 | 31.48895 | -84.35506 | 38844 ft | 444 kts | 179° |
| 2026-05-03 22:18 | 31.42850 | -84.33981 | 39075 ft | 439 kts | 179° |
| 2026-05-03 22:18 | 31.36885 | -84.32478 | 39083 ft | 439 kts | 179° |
| 2026-05-03 22:19 | 31.30873 | -84.30965 | 39077 ft | 439 kts | 179° |
| 2026-05-03 22:19 | 31.24908 | -84.29462 | 39084 ft | 440 kts | 179° |
| 2026-05-03 22:20 | 31.18885 | -84.27949 | 39091 ft | 440 kts | 179° |
| 2026-05-03 22:20 | 31.12878 | -84.26438 | 39083 ft | 437 kts | 179° |
| 2026-05-03 22:21 | 31.06945 | -84.24950 | 39081 ft | 437 kts | 179° |
| 2026-05-03 22:21 | 31.00977 | -84.23456 | 39086 ft | 436 kts | 179° |
| 2026-05-03 22:22 | 30.95040 | -84.21971 | 39080 ft | 436 kts | 179° |
| 2026-05-03 22:22 | 30.89095 | -84.20485 | 39081 ft | 436 kts | 179° |
| 2026-05-03 22:23 | 30.83119 | -84.18994 | 39084 ft | 436 kts | 180° |
| 2026-05-03 22:23 | 30.77182 | -84.17514 | 39090 ft | 437 kts | 180° |
| 2026-05-03 22:24 | 30.71179 | -84.16020 | 39085 ft | 438 kts | 180° |
| 2026-05-03 22:24 | 30.65213 | -84.14535 | 39091 ft | 436 kts | 180° |
| 2026-05-03 22:25 | 30.59327 | -84.13072 | 39079 ft | 433 kts | 180° |
| 2026-05-03 22:25 | 30.53390 | -84.11601 | 39086 ft | 433 kts | 180° |
| 2026-05-03 22:26 | 30.47512 | -84.10146 | 39075 ft | 434 kts | 180° |
| 2026-05-03 22:26 | 30.41604 | -84.08683 | 39078 ft | 432 kts | 180° |
| 2026-05-03 22:27 | 30.35732 | -84.06478 | 39085 ft | 458 kts | 165° |
| 2026-05-03 22:27 | 30.30118 | -84.02808 | 39064 ft | 463 kts | 163° |
| 2026-05-03 22:28 | 30.24526 | -83.99112 | 39060 ft | 462 kts | 163° |
| 2026-05-03 22:28 | 30.18973 | -83.95438 | 39070 ft | 461 kts | 163° |
| 2026-05-03 22:29 | 30.13384 | -83.91740 | 39073 ft | 462 kts | 163° |
| 2026-05-03 22:29 | 30.07795 | -83.88047 | 39055 ft | 462 kts | 163° |
| 2026-05-03 22:30 | 30.02205 | -83.84358 | 39067 ft | 464 kts | 163° |
| 2026-05-03 22:30 | 29.96610 | -83.80669 | 39073 ft | 464 kts | 163° |
| 2026-05-03 22:31 | 29.90983 | -83.76964 | 39065 ft | 466 kts | 163° |
| 2026-05-03 22:31 | 29.85323 | -83.73241 | 39076 ft | 466 kts | 163° |
| 2026-05-03 22:32 | 29.79701 | -83.69550 | 39075 ft | 467 kts | 164° |
| 2026-05-03 22:32 | 29.74026 | -83.65829 | 39075 ft | 468 kts | 163° |
| 2026-05-03 22:33 | 29.68389 | -83.62134 | 39067 ft | 466 kts | 164° |
| 2026-05-03 22:33 | 29.62749 | -83.58446 | 39079 ft | 467 kts | 164° |
| 2026-05-03 22:34 | 29.57092 | -83.54750 | 39067 ft | 466 kts | 164° |
| 2026-05-03 22:34 | 29.51436 | -83.51061 | 39079 ft | 466 kts | 164° |
| 2026-05-03 22:35 | 29.45808 | -83.47392 | 39084 ft | 466 kts | 164° |
| 2026-05-03 22:35 | 29.40170 | -83.43724 | 39069 ft | 465 kts | 164° |
| 2026-05-03 22:36 | 29.34531 | -83.40061 | 39072 ft | 466 kts | 165° |
| 2026-05-03 22:36 | 29.28872 | -83.36389 | 39068 ft | 466 kts | 165° |
| 2026-05-03 22:37 | 29.23224 | -83.32685 | 39056 ft | 457 kts | 170° |
| 2026-05-03 22:37 | 29.20337 | -83.31297 | 39043 ft | 445 kts | 173° |
| 2026-05-03 22:37 | 29.17478 | -83.29958 | 39046 ft | 448 kts | 172° |
| 2026-05-03 22:38 | 29.11708 | -83.27136 | 39048 ft | 450 kts | 172° |
| 2026-05-03 22:38 | 29.05959 | -83.24266 | 39040 ft | 451 kts | 172° |
| 2026-05-03 22:39 | 29.00220 | -83.21378 | 39045 ft | 450 kts | 171° |
| 2026-05-03 22:39 | 28.94500 | -83.18492 | 39046 ft | 450 kts | 172° |
| 2026-05-03 22:40 | 28.88728 | -83.15583 | 39054 ft | 451 kts | 171° |
| 2026-05-03 22:40 | 28.82973 | -83.12682 | 39054 ft | 452 kts | 172° |
| 2026-05-03 22:41 | 28.77227 | -83.09789 | 39044 ft | 454 kts | 172° |
| 2026-05-03 22:41 | 28.71377 | -83.06847 | 39056 ft | 456 kts | 171° |
| 2026-05-03 22:42 | 28.65583 | -83.03934 | 39041 ft | 455 kts | 172° |
| 2026-05-03 22:42 | 28.59804 | -83.01035 | 39058 ft | 454 kts | 171° |
| 2026-05-03 22:43 | 28.54001 | -82.98128 | 39047 ft | 455 kts | 171° |
| 2026-05-03 22:43 | 28.48182 | -82.95215 | 39037 ft | 456 kts | 171° |
| 2026-05-03 22:44 | 28.42365 | -82.92308 | 39045 ft | 457 kts | 171° |
| 2026-05-03 22:44 | 28.36540 | -82.89397 | 39038 ft | 455 kts | 171° |
| 2026-05-03 22:45 | 28.30725 | -82.86498 | 39040 ft | 456 kts | 171° |
| 2026-05-03 22:45 | 28.24883 | -82.83588 | 39045 ft | 457 kts | 171° |
| 2026-05-03 22:46 | 28.19062 | -82.80692 | 39032 ft | 457 kts | 171° |
| 2026-05-03 22:46 | 28.13264 | -82.77811 | 39048 ft | 457 kts | 171° |
| 2026-05-03 22:47 | 28.07426 | -82.74912 | 39047 ft | 458 kts | 171° |
| 2026-05-03 22:47 | 28.01539 | -82.72029 | 39040 ft | 453 kts | 174° |
| 2026-05-03 22:47 | 27.98554 | -82.71061 | 39065 ft | 435 kts | 184° |
| 2026-05-03 22:48 | 27.95593 | -82.70530 | 39046 ft | 431 kts | 185° |
| 2026-05-03 22:48 | 27.89675 | -82.69443 | 39046 ft | 433 kts | 185° |
| 2026-05-03 22:49 | 27.83648 | -82.68287 | 39051 ft | 435 kts | 184° |
| 2026-05-03 22:49 | 27.77679 | -82.67123 | 39045 ft | 436 kts | 183° |
| 2026-05-03 22:50 | 27.71669 | -82.65945 | 39051 ft | 436 kts | 183° |
| 2026-05-03 22:50 | 27.65692 | -82.64771 | 39041 ft | 438 kts | 184° |
| 2026-05-03 22:51 | 27.59664 | -82.63587 | 39043 ft | 438 kts | 184° |
| 2026-05-03 22:51 | 27.53640 | -82.62404 | 39037 ft | 438 kts | 182° |
| 2026-05-03 22:52 | 27.47627 | -82.60703 | 39046 ft | 447 kts | 179° |
| 2026-05-03 22:52 | 27.41616 | -82.58929 | 39043 ft | 446 kts | 178° |
| 2026-05-03 22:53 | 27.35562 | -82.57149 | 39049 ft | 448 kts | 178° |
| 2026-05-03 22:53 | 27.29535 | -82.55379 | 39039 ft | 447 kts | 178° |
| 2026-05-03 22:54 | 27.23483 | -82.53606 | 39042 ft | 448 kts | 178° |
| 2026-05-03 22:54 | 27.17435 | -82.51838 | 39037 ft | 450 kts | 178° |
| 2026-05-03 22:55 | 27.11361 | -82.50062 | 39046 ft | 450 kts | 178° |
| 2026-05-03 22:55 | 27.05300 | -82.48292 | 39043 ft | 451 kts | 178° |
| 2026-05-03 22:56 | 26.99301 | -82.46541 | 39034 ft | 450 kts | 178° |
| 2026-05-03 22:56 | 26.93222 | -82.44520 | 39046 ft | 466 kts | 168° |
| 2026-05-03 22:56 | 26.90302 | -82.42823 | 39049 ft | 481 kts | 158° |
| 2026-05-03 22:57 | 26.87557 | -82.40569 | 39062 ft | 495 kts | 150° |
| 2026-05-03 22:57 | 26.82267 | -82.35441 | 38492 ft | 509 kts | 150° |
| 2026-05-03 22:57 | 26.79602 | -82.32880 | 37665 ft | 511 kts | 150° |
| 2026-05-03 22:58 | 26.76907 | -82.30286 | 36822 ft | 505 kts | 150° |
| 2026-05-03 22:58 | 26.74275 | -82.27756 | 36047 ft | 499 kts | 150° |
| 2026-05-03 22:58 | 26.71656 | -82.25244 | 35319 ft | 494 kts | 150° |
| 2026-05-03 22:58 | 26.69027 | -82.22729 | 34622 ft | 494 kts | 150° |
| 2026-05-03 22:59 | 26.66412 | -82.20239 | 33884 ft | 505 kts | 149° |
| 2026-05-03 22:59 | 26.63709 | -82.17662 | 33097 ft | 512 kts | 149° |
| 2026-05-03 22:59 | 26.60975 | -82.15051 | 32475 ft | 513 kts | 149° |
| 2026-05-03 22:59 | 26.58254 | -82.12455 | 31831 ft | 513 kts | 148° |
| 2026-05-03 23:00 | 26.55543 | -82.09869 | 31116 ft | 508 kts | 148° |
| 2026-05-03 23:00 | 26.52895 | -82.07331 | 30459 ft | 500 kts | 147° |
| 2026-05-03 23:00 | 26.50321 | -82.04745 | 29774 ft | 492 kts | 145° |
| 2026-05-03 23:00 | 26.47828 | -82.02224 | 29148 ft | 484 kts | 145° |
| 2026-05-03 23:01 | 26.45353 | -81.99726 | 28507 ft | 476 kts | 145° |
| 2026-05-03 23:01 | 26.42907 | -81.97259 | 27890 ft | 470 kts | 145° |
| 2026-05-03 23:01 | 26.40479 | -81.94816 | 27292 ft | 467 kts | 144° |
| 2026-05-03 23:01 | 26.38077 | -81.92400 | 26696 ft | 464 kts | 144° |
| 2026-05-03 23:02 | 26.35695 | -81.90005 | 26072 ft | 460 kts | 144° |
| 2026-05-03 23:02 | 26.33323 | -81.87624 | 25485 ft | 456 kts | 144° |
| 2026-05-03 23:02 | 26.30983 | -81.85273 | 24864 ft | 451 kts | 144° |
| 2026-05-03 23:02 | 26.28648 | -81.82929 | 24307 ft | 446 kts | 144° |
| 2026-05-03 23:03 | 26.26363 | -81.80628 | 23758 ft | 442 kts | 143° |
| 2026-05-03 23:03 | 26.24278 | -81.78073 | 23155 ft | 442 kts | 132° |
| 2026-05-03 23:03 | 26.22640 | -81.75201 | 22619 ft | 444 kts | 123° |
| 2026-05-03 23:03 | 26.21258 | -81.72146 | 22129 ft | 440 kts | 121° |
| 2026-05-03 23:04 | 26.19900 | -81.69104 | 21618 ft | 435 kts | 121° |
| 2026-05-03 23:04 | 26.18573 | -81.66097 | 21102 ft | 431 kts | 120° |
| 2026-05-03 23:04 | 26.17262 | -81.63108 | 20588 ft | 427 kts | 120° |
| 2026-05-03 23:04 | 26.15958 | -81.60128 | 20069 ft | 423 kts | 120° |
| 2026-05-03 23:05 | 26.14687 | -81.57218 | 19541 ft | 420 kts | 120° |
| 2026-05-03 23:05 | 26.13423 | -81.54321 | 19017 ft | 417 kts | 120° |
| 2026-05-03 23:05 | 26.12148 | -81.51399 | 18466 ft | 414 kts | 120° |
| 2026-05-03 23:05 | 26.10902 | -81.48547 | 17902 ft | 412 kts | 120° |
| 2026-05-03 23:06 | 26.09656 | -81.45695 | 17263 ft | 412 kts | 119° |
| 2026-05-03 23:06 | 26.08809 | -81.43760 | 16855 ft | 410 kts | 119° |
| 2026-05-03 23:06 | 26.07202 | -81.40073 | 16341 ft | 395 kts | 119° |
| 2026-05-03 23:06 | 26.06014 | -81.37354 | 15747 ft | 390 kts | 119° |
| 2026-05-03 23:07 | 26.04837 | -81.34647 | 15287 ft | 386 kts | 120° |
| 2026-05-03 23:07 | 26.03682 | -81.31998 | 14766 ft | 383 kts | 120° |
| 2026-05-03 23:07 | 26.02525 | -81.29343 | 14272 ft | 379 kts | 120° |
| 2026-05-03 23:07 | 26.01382 | -81.26724 | 13786 ft | 375 kts | 119° |
| 2026-05-03 23:08 | 26.00241 | -81.24110 | 13310 ft | 371 kts | 119° |
| 2026-05-03 23:08 | 25.99121 | -81.21546 | 12823 ft | 368 kts | 119° |
| 2026-05-03 23:08 | 25.98015 | -81.19013 | 12362 ft | 363 kts | 119° |
| 2026-05-03 23:08 | 25.96905 | -81.16475 | 11922 ft | 358 kts | 119° |
| 2026-05-03 23:09 | 25.95828 | -81.14012 | 11347 ft | 352 kts | 119° |
| 2026-05-03 23:09 | 25.94780 | -81.11618 | 10974 ft | 341 kts | 119° |
| 2026-05-03 23:09 | 25.93764 | -81.09293 | 10923 ft | 324 kts | 119° |
| 2026-05-03 23:09 | 25.92801 | -81.07093 | 10893 ft | 308 kts | 119° |
| 2026-05-03 23:10 | 25.91873 | -81.04979 | 10642 ft | 303 kts | 119° |
| 2026-05-03 23:10 | 25.91256 | -81.03552 | 10397 ft | 303 kts | 117° |
| 2026-05-03 23:10 | 25.90149 | -81.00673 | 9904 ft | 300 kts | 116° |
| 2026-05-03 23:10 | 25.89362 | -80.98612 | 9877 ft | 285 kts | 116° |
| 2026-05-03 23:11 | 25.88558 | -80.96521 | 9662 ft | 305 kts | 116° |
| 2026-05-03 23:11 | 25.87725 | -80.94355 | 9203 ft | 308 kts | 115° |
| 2026-05-03 23:11 | 25.86883 | -80.92155 | 8979 ft | 300 kts | 116° |
| 2026-05-03 23:11 | 25.86099 | -80.90103 | 8967 ft | 283 kts | 116° |
| 2026-05-03 23:12 | 25.85316 | -80.88074 | 8995 ft | 293 kts | 116° |
| 2026-05-03 23:12 | 25.84504 | -80.85965 | 8980 ft | 298 kts | 115° |
| 2026-05-03 23:12 | 25.83691 | -80.83849 | 8789 ft | 301 kts | 116° |
| 2026-05-03 23:12 | 25.82864 | -80.81702 | 8371 ft | 301 kts | 115° |
| 2026-05-03 23:13 | 25.82043 | -80.79567 | 7934 ft | 301 kts | 115° |
| 2026-05-03 23:13 | 25.81230 | -80.77459 | 7526 ft | 301 kts | 115° |
| 2026-05-03 23:13 | 25.80402 | -80.75307 | 7140 ft | 300 kts | 115° |
| 2026-05-03 23:13 | 25.79587 | -80.73195 | 6698 ft | 301 kts | 115° |
| 2026-05-03 23:14 | 25.78773 | -80.71083 | 6539 ft | 291 kts | 115° |
| 2026-05-03 23:14 | 25.77980 | -80.69031 | 6059 ft | 294 kts | 115° |
| 2026-05-03 23:14 | 25.77293 | -80.66866 | 5657 ft | 294 kts | 98° |
| 2026-05-03 23:14 | 25.77254 | -80.64641 | 5410 ft | 289 kts | 88° |
| 2026-05-03 23:15 | 25.77325 | -80.62409 | 4947 ft | 291 kts | 88° |
| 2026-05-03 23:15 | 25.77405 | -80.60199 | 4808 ft | 280 kts | 87° |
| 2026-05-03 23:15 | 25.77491 | -80.58079 | 4426 ft | 272 kts | 87° |
| 2026-05-03 23:15 | 25.77577 | -80.56029 | 4030 ft | 260 kts | 87° |
| 2026-05-03 23:16 | 25.77658 | -80.54081 | 3893 ft | 247 kts | 87° |
| 2026-05-03 23:16 | 25.77738 | -80.52149 | 3702 ft | 259 kts | 87° |
| 2026-05-03 23:16 | 25.77818 | -80.50144 | 3346 ft | 259 kts | 86° |
| 2026-05-03 23:16 | 25.77898 | -80.48148 | 2996 ft | 259 kts | 86° |
| 2026-05-03 23:17 | 25.77983 | -80.46175 | 2653 ft | 259 kts | 86° |
| 2026-05-03 23:17 | 25.78073 | -80.44175 | 2273 ft | 253 kts | 85° |
| 2026-05-03 23:17 | 25.78151 | -80.42310 | 1999 ft | 225 kts | 85° |
| 2026-05-03 23:17 | 25.78220 | -80.40699 | 1677 ft | 198 kts | 84° |
| 2026-05-03 23:18 | 25.78278 | -80.39242 | 1402 ft | 176 kts | 85° |
| 2026-05-03 23:18 | 25.78333 | -80.38000 | 1221 ft | 152 kts | 84° |
| 2026-05-03 23:18 | 25.78383 | -80.36851 | 1058 ft | 152 kts | 84° |
| 2026-05-03 23:18 | 25.78437 | -80.35637 | 849 ft | 157 kts | 85° |
| 2026-05-03 23:19 | 25.78486 | -80.34450 | 626 ft | 152 kts | 86° |
| 2026-05-03 23:19 | 25.78530 | -80.33296 | 429 ft | 148 kts | 86° |
| 2026-05-03 23:19 | 25.78578 | -80.32161 | 239 ft | 149 kts | 86° |
| 2026-05-03 23:19 | 25.78627 | -80.31009 | 66 ft | 149 kts | 85° |
| 2026-05-03 23:20 | 25.78680 | -80.29894 | 16 ft | 131 kts | 86° |
| 2026-05-03 23:20 | 25.78716 | -80.29007 | 18 ft | 108 kts | 88° |
| 2026-05-03 23:20 | 25.78751 | -80.28198 | 16 ft | 95 kts | 88° |
| 2026-05-03 23:20 | 25.78788 | -80.27685 | 15 ft | 37 kts | 66° |
| 2026-05-03 23:21 | 25.78871 | -80.27729 | 15 ft | 19 kts | 275° |
| 2026-05-03 23:21 | 25.78915 | -80.27831 | 15 ft | 13 kts | 349° |
| 2026-05-03 23:21 | 25.78999 | -80.27824 | 15 ft | 11 kts | 20° |
| 2026-05-03 23:21 | 25.79071 | -80.27788 | 15 ft | 10 kts | 25° |
| 2026-05-03 23:22 | 25.79138 | -80.27730 | 15 ft | 7 kts | 92° |
| 2026-05-03 23:22 | 25.79137 | -80.27705 | 15 ft | 0 kts | 95° |